Map

Track Data

SID SEASON NUMBER BASIN SUBBASIN NAME ISO_TIME NATURE LAT LON WMO_WIND WMO_PRES WMO_AGENCY TRACK_TYPE DIST2LAND LANDFALL IFLAG USA_AGENCY USA_ATCF_ID USA_LAT USA_LON USA_RECORD USA_STATUS USA_WIND USA_PRES USA_SSHS USA_R34_NE USA_R34_SE USA_R34_SW USA_R34_NW USA_R50_NE USA_R50_SE USA_R50_SW USA_R50_NW USA_R64_NE USA_R64_SE USA_R64_SW USA_R64_NW USA_POCI USA_ROCI USA_RMW USA_EYE TOKYO_LAT TOKYO_LON TOKYO_GRADE TOKYO_WIND TOKYO_PRES TOKYO_R50_DIR TOKYO_R50_LONG TOKYO_R50_SHORT TOKYO_R30_DIR TOKYO_R30_LONG TOKYO_R30_SHORT TOKYO_LAND CMA_LAT CMA_LON CMA_CAT CMA_WIND CMA_PRES HKO_LAT HKO_LON HKO_CAT HKO_WIND HKO_PRES NEWDELHI_LAT NEWDELHI_LON NEWDELHI_GRADE NEWDELHI_WIND NEWDELHI_PRES NEWDELHI_CI NEWDELHI_DP NEWDELHI_POCI REUNION_LAT REUNION_LON REUNION_TYPE REUNION_WIND REUNION_PRES REUNION_TNUM REUNION_CI REUNION_RMW REUNION_R34_NE REUNION_R34_SE REUNION_R34_SW REUNION_R34_NW REUNION_R50_NE REUNION_R50_SE REUNION_R50_SW REUNION_R50_NW REUNION_R64_NE REUNION_R64_SE REUNION_R64_SW REUNION_R64_NW BOM_LAT BOM_LON BOM_TYPE BOM_WIND BOM_PRES BOM_TNUM BOM_CI BOM_RMW BOM_R34_NE BOM_R34_SE BOM_R34_SW BOM_R34_NW BOM_R50_NE BOM_R50_SE BOM_R50_SW BOM_R50_NW BOM_R64_NE BOM_R64_SE BOM_R64_SW BOM_R64_NW BOM_ROCI BOM_POCI BOM_EYE BOM_POS_METHOD BOM_PRES_METHOD NADI_LAT NADI_LON NADI_CAT NADI_WIND NADI_PRES WELLINGTON_LAT WELLINGTON_LON WELLINGTON_WIND WELLINGTON_PRES DS824_LAT DS824_LON DS824_STAGE DS824_WIND DS824_PRES TD9636_LAT TD9636_LON TD9636_STAGE TD9636_WIND TD9636_PRES TD9635_LAT TD9635_LON TD9635_WIND TD9635_PRES TD9635_ROCI NEUMANN_LAT NEUMANN_LON NEUMANN_CLASS NEUMANN_WIND NEUMANN_PRES MLC_LAT MLC_LON MLC_CLASS MLC_WIND MLC_PRES USA_GUST BOM_GUST BOM_GUST_PER REUNION_GUST REUNION_GUST_PER USA_SEAHGT USA_SEARAD_NE USA_SEARAD_SE USA_SEARAD_SW USA_SEARAD_NW STORM_SPEED STORM_DIR
1919135S21155 1919 10 SP EA NOT_NAMED 1919-05-14 12:00:00 NR -21.4000 155.000 main 417 407 __________O___ -1 -21.4000 155.000 7 1 155
1919135S21155 1919 10 SP EA NOT_NAMED 1919-05-14 15:00:00 NR -21.4623 155.041 main 407 407 __________P___ -1 -21.4623 155.041 7 2 148
1919135S21155 1919 10 SP EA NOT_NAMED 1919-05-14 18:00:00 NR -21.5497 155.106 main 412 397 __________P___ -1 -21.5497 155.106 7 3 144
1919135S21155 1919 10 SP EA NOT_NAMED 1919-05-14 21:00:00 NR -21.6873 155.217 main 397 388 __________P___ -1 -21.6873 155.217 7 4 142
1919135S21155 1919 10 SP EA NOT_NAMED 1919-05-15 00:00:00 NR -21.9000 155.400 main 388 373 __________O___ -1 -21.9000 155.400 7 7 141
1919135S21155 1919 10 SP EA NOT_NAMED 1919-05-15 03:00:00 NR -22.2033 155.669 main 379 368 __________P___ -1 -22.2033 155.669 7 9 140
1919135S21155 1919 10 SP EA NOT_NAMED 1919-05-15 06:00:00 NR -22.5753 156.009 main 368 368 __________P___ -1 -22.5753 156.009 7 10 139
1919135S21155 1919 10 SP EA NOT_NAMED 1919-05-15 09:00:00 NR -22.9845 156.395 main 373 373 __________P___ -1 -22.9845 156.395 7 11 139
1919135S21155 1919 10 SP EA NOT_NAMED 1919-05-15 12:00:00 NR -23.4000 156.800 main 387 387 __________O___ -1 -23.4000 156.800 7 10 138
1919135S21155 1919 10 SP EA NOT_NAMED 1919-05-15 15:00:00 NR -23.7289 157.128 main 401 401 __________P___ -1 -23.7289 157.128 7 9 137
1919135S21155 1919 10 SP EA NOT_NAMED 1919-05-15 18:00:00 NR -24.0651 157.478 main 426 426 __________P___ -1 -24.0651 157.478 7 10 136
1919135S21155 1919 10 SP EA NOT_NAMED 1919-05-15 21:00:00 NR -24.4439 157.889 main 459 457 __________P___ -1 -24.4439 157.889 7 12 135
1919135S21155 1919 10 SP EA NOT_NAMED 1919-05-16 00:00:00 NR -24.9000 158.400 main 503 503 __________O___ -1 -24.9000 158.400 7 15 134
1919135S21155 1919 10 SP EA NOT_NAMED 1919-05-16 03:00:00 NR -25.4845 159.073 main 575 575 __________P___ -1 -25.4845 159.073 7 18 134
1919135S21155 1919 10 SP EA NOT_NAMED 1919-05-16 06:00:00 NR -26.1420 159.849 main 653 653 __________P___ -1 -26.1420 159.849 7 20 133
1919135S21155 1919 10 SP MM NOT_NAMED 1919-05-16 09:00:00 NR -26.8282 160.677 main 716 714 __________P___ -1 -26.8282 160.677 7 20 133
1919135S21155 1919 10 SP MM NOT_NAMED 1919-05-16 12:00:00 NR -27.5000 161.500 main 760 757 __________O___ -1 -27.5000 161.500 7 19 133
1919135S21155 1919 10 SP MM NOT_NAMED 1919-05-16 15:00:00 NR -28.1114 162.250 main 773 767 __________P___ -1 -28.1114 162.250 7 18 133
1919135S21155 1919 10 SP MM NOT_NAMED 1919-05-16 18:00:00 NR -28.7008 162.983 main 792 792 __________P___ -1 -28.7008 162.983 7 17 132
1919135S21155 1919 10 SP MM NOT_NAMED 1919-05-16 21:00:00 NR -29.2647 163.699 main 826 823 __________P___ -1 -29.2647 163.699 7 17 132
1919135S21155 1919 10 SP MM NOT_NAMED 1919-05-17 00:00:00 NR -29.8000 164.400 main 857 852 __________O___ -1 -29.8000 164.400 7 16 131
1919135S21155 1919 10 SP MM NOT_NAMED 1919-05-17 03:00:00 NR -30.3180 165.080 main 844 765 __________P___ -1 -30.3180 165.080 7 15 131
1919135S21155 1919 10 SP MM NOT_NAMED 1919-05-17 06:00:00 NR -30.8073 165.746 main 765 685 __________P___ -1 -30.8073 165.746 7 15 130
1919135S21155 1919 10 SP MM NOT_NAMED 1919-05-17 09:00:00 NR -31.2680 166.414 main 678 598 __________P___ -1 -31.2680 166.414 7 15 128
1919135S21155 1919 10 SP MM NOT_NAMED 1919-05-17 12:00:00 NR -31.7000 167.100 main 598 511 __________O___ -1 -31.7000 167.100 7 15 125
1919135S21155 1919 10 SP MM NOT_NAMED 1919-05-17 15:00:00 NR -32.1542 167.904 main 505 418 __________P___ -1 -32.1542 167.904 7 16 123
1919135S21155 1919 10 SP MM NOT_NAMED 1919-05-17 18:00:00 NR -32.5728 168.717 main 418 345 __________P___ -1 -32.5728 168.717 7 15 120
1919135S21155 1919 10 SP MM NOT_NAMED 1919-05-17 21:00:00 NR -32.9295 169.472 main 337 272 __________P___ -1 -32.9295 169.472 7 13 118
1919135S21155 1919 10 SP MM NOT_NAMED 1919-05-18 00:00:00 NR -33.2000 170.100 main 272 228 __________O___ -1 -33.2000 170.100 7 10 116
1919135S21155 1919 10 SP MM NOT_NAMED 1919-05-18 03:00:00 NR -33.3585 170.523 main 228 206 __________P___ -1 -33.3585 170.523 7 6 112
1919135S21155 1919 10 SP MM NOT_NAMED 1919-05-18 06:00:00 NR -33.4368 170.812 main 206 184 __________P___ -1 -33.4368 170.812 7 4 105
1919135S21155 1919 10 SP MM NOT_NAMED 1919-05-18 09:00:00 NR -33.4718 171.019 main 184 170 __________P___ -1 -33.4718 171.019 7 3 101
1919135S21155 1919 10 SP MM NOT_NAMED 1919-05-18 12:00:00 NR -33.5000 171.200 main 170 163 __________O___ -1 -33.5000 171.200 7 2 103
1919135S21155 1919 10 SP MM NOT_NAMED 1919-05-18 15:00:00 NR -33.5264 171.305 main 163 149 __________P___ -1 -33.5264 171.305 7 2 109
1919135S21155 1919 10 SP MM NOT_NAMED 1919-05-18 18:00:00 NR -33.5608 171.417 main 149 136 __________P___ -1 -33.5608 171.417 7 3 112
1919135S21155 1919 10 SP MM NOT_NAMED 1919-05-18 21:00:00 NR -33.6400 171.645 main 136 90 __________P___ -1 -33.6400 171.645 7 6 113
1919135S21155 1919 10 SP MM NOT_NAMED 1919-05-19 00:00:00 NR -33.8000 172.100 main 90 44 __________O___ -1 -33.8000 172.100 7 12 113
1919135S21155 1919 10 SP MM NOT_NAMED 1919-05-19 03:00:00 NR -34.1044 172.936 main 44 34 __________P___ -1 -34.1044 172.936 7 17 113
1919135S21155 1919 10 SP MM NOT_NAMED 1919-05-19 06:00:00 NR -34.4772 174.008 main 58 58 __________P___ -1 -34.4772 174.008 7 20 112
1919135S21155 1919 10 SP MM NOT_NAMED 1919-05-19 09:00:00 NR -34.8604 175.202 main 91 91 __________P___ -1 -34.8604 175.202 7 21 110
1919135S21155 1919 10 SP MM NOT_NAMED 1919-05-19 12:00:00 NR -35.2000 176.400 main 175 175 __________O___ -1 -35.2000 176.400 7 20 108
1919135S21155 1919 10 SP MM NOT_NAMED 1919-05-19 15:00:00 NR -35.4582 177.505 main 216 216 __________P___ -1 -35.4582 177.505 7 18 104
1919135S21155 1919 10 SP MM NOT_NAMED 1919-05-19 18:00:00 NR -35.6464 178.520 main 223 213 __________P___ -1 -35.6464 178.520 7 16 102
1919135S21155 1919 10 SP MM NOT_NAMED 1919-05-19 21:00:00 NR -35.7867 179.474 main 226 226 __________P___ -1 -35.7867 179.474 7 15 99
1919135S21155 1919 10 SP MM NOT_NAMED 1919-05-20 00:00:00 NR -35.9000 180.400 main 256 __________O___ -1 -35.9000 -179.600 7 15 99

Digital Typhoon Data and Search

About IBTrACS Database

This database is a web-friendly format of International Best Track Archive for Climate Stewardship (IBTrACS), a global best track data archive curated by NOAA dating back to 1842.

Updated: 2021-12-03